Flight Track Log - Related Links

Times and Time Zones

All times are in EDT time to prevent confusion due to time zone crossing. See the AAL196 flight status page for this flight to view local times or setup timezone preferences in your user account.

Time Position Orientation Groundspeed Altitude Reporting Facility
EDT Latitude Longitude Course Direction KTS MPH feet Rate Location/Type
Fri 08:55:13 PM 37.5356 -77.3206 276° West 182 209 1,400  Level Washington Center
Fri 08:56:14 PM 37.5406 -77.3850 276° West 201 231 3,300 2,016 Climbing Washington Center
Fri 08:57:18 PM 37.5142 -77.4608 246° West 228 262 5,600 2,457 Climbing Washington Center
Fri 08:58:21 PM 37.4889 -77.5494 250° West 264 304 8,500 2,468 Climbing Washington Center
Fri 08:59:22 PM 37.4675 -77.6394 253° West 268 308 10,700 1,967 Climbing Washington Center
Fri 09:00:23 PM 37.4294 -77.7719 250° West 342 394 12,500 1,935 Climbing Washington Center
Fri 09:01:26 PM 37.3981 -77.8928 252° West 359 413 14,700 2,323 Climbing Washington Center
Fri 09:02:27 PM 37.3664 -78.0214 253° West 383 441 17,300 2,565 Climbing Washington Center
Fri 09:03:30 PM 37.3225 -78.1686 249° West 390 449 20,000 1,748 Climbing Washington Center
Fri 09:04:34 PM 37.2922 -78.2981 254° West 395 455 21,000 484 Climbing Washington Center
Fri 09:05:34 PM 37.3439 -78.4083 301° West 392 451 21,000 590 Level Washington Center
Fri 09:06:36 PM 37.4206 -78.5039 315° West 401 461 22,200 1,392 Climbing Washington Center
Fri 09:07:39 PM 37.4714 -78.6536 293° West 403 464 23,900 1,355 Climbing Washington Center
Fri 09:08:40 PM 37.5111 -78.7842 291° West 407 468 25,000 1,279 Climbing Washington Center
Fri 09:09:41 PM 37.5556 -78.9217 292° West 435 501 26,500 1,597 Climbing Washington Center
Fri 09:10:44 PM 37.6039 -79.0833 291° West 426 490 28,300 1,210 Climbing Washington Center
Fri 09:11:45 PM 37.6444 -79.2072 292° West 425 489 29,000 871 Climbing Washington Center
Fri 09:12:48 PM 37.6889 -79.3489 292° West 430 495 30,100 1,306 Climbing Washington Center
Fri 09:13:49 PM 37.7386 -79.5156 291° West 434 499 31,700 919 Climbing Washington Center
Fri 09:14:52 PM 37.7797 -79.6478 292° West 424 488 32,000 143 Climbing Washington Center
Fri 09:15:55 PM 37.8103 -79.7850 286° West 426 490 32,000  Level Washington Center
Fri 09:16:56 PM 37.7747 -79.9481 255° West 416 479 32,000  Level Washington Center
Fri 09:17:57 PM 37.7589 -80.0894 262° West 417 480 32,000  Level Washington Center
Fri 09:19:00 PM 37.7447 -80.2306 263° West 417 480 32,000  Level Washington Center
Fri 09:20:00 PM 37.7281 -80.3997 263° West 418 481 32,000  Level Washington Center
Fri 09:21:03 PM 37.7150 -80.5400 263° West 417 480 32,000  Level Washington Center
Fri 09:22:05 PM 37.7008 -80.6811 263° West 417 480 32,000  Level Washington Center
Fri 09:22:59 PM 37.6872 -80.8214 263° West 417 480 32,000  Level Indianapolis Center
Fri 09:24:00 PM 37.6728 -80.9619 263° West 417 480 32,000  Level Indianapolis Center
Fri 09:25:02 PM 37.6553 -81.1278 262° West 413 475 32,000  Level Indianapolis Center
Fri 09:26:03 PM 37.6417 -81.2644 263° West 411 473 32,000  Level Indianapolis Center
Fri 09:27:05 PM 37.6247 -81.3994 261° West 405 466 32,000  Level Indianapolis Center
Fri 09:28:06 PM 37.6083 -81.5364 261° West 404 465 32,000  Level Indianapolis Center
Fri 09:29:08 PM 37.5906 -81.6975 262° West 400 460 32,000  Level Indianapolis Center
Fri 09:30:09 PM 37.5728 -81.8331 261° West 396 456 32,000  Level Indianapolis Center
Fri 09:31:11 PM 37.5575 -81.9717 262° West 396 456 32,000  Level Indianapolis Center
Fri 09:32:12 PM 37.5406 -82.1089 261° West 396 456 32,000  Level Indianapolis Center
Fri 09:33:14 PM 37.5242 -82.2436 261° West 394 453 32,000  Level Indianapolis Center
Fri 09:34:15 PM 37.5075 -82.3781 261° West 393 452 32,000  Level Indianapolis Center
Fri 09:35:17 PM 37.4908 -82.5136 261° West 393 452 32,000  Level Indianapolis Center
Fri 09:36:18 PM 37.4708 -82.6706 261° West 393 452 32,000  Level Indianapolis Center
Fri 09:37:20 PM 37.4533 -82.8058 261° West 393 452 32,000  Level Indianapolis Center
Fri 09:38:21 PM 37.4358 -82.9400 261° West 392 451 32,000  Level Indianapolis Center
Fri 09:39:22 PM 37.4192 -83.0731 261° West 391 450 32,000  Level Indianapolis Center
Fri 09:40:24 PM 37.4019 -83.2058 261° West 389 448 32,000  Level Indianapolis Center
Fri 09:41:25 PM 37.3836 -83.3375 260° West 388 447 32,000  Level Indianapolis Center
Fri 09:42:27 PM 37.3664 -83.4686 261° West 386 444 32,000  Level Indianapolis Center
Fri 09:43:28 PM 37.3453 -83.6242 260° West 386 444 32,000  Level Indianapolis Center
Fri 09:44:29 PM 37.3278 -83.7564 261° West 386 444 32,000  Level Indianapolis Center
Fri 09:45:31 PM 37.3092 -83.8883 260° West 386 444 32,000  Level Indianapolis Center
Fri 09:46:32 PM 37.2917 -84.0211 261° West 386 444 32,000  Level Indianapolis Center
Fri 09:47:34 PM 37.2525 -84.1500 249° West 392 451 32,000  Level Indianapolis Center
Fri 09:48:35 PM 37.2172 -84.2781 251° West 392 451 32,000  Level Indianapolis Center
Fri 09:49:36 PM 37.1811 -84.4067 251° West 392 451 32,000  Level Indianapolis Center
Fri 09:50:38 PM 37.1447 -84.5369 251° West 392 451 32,000  Level Indianapolis Center
Fri 09:51:39 PM 37.1022 -84.6881 251° West 392 451 32,000  Level Indianapolis Center
Fri 09:52:40 PM 37.0658 -84.8172 251° West 392 451 32,000  Level Indianapolis Center
Fri 09:53:42 PM 37.0300 -84.9436 250° West 393 452 32,000  Level Indianapolis Center
Fri 09:54:43 PM 36.9925 -85.0719 250° West 393 452 32,000  Level Indianapolis Center
Fri 09:55:44 PM 36.9564 -85.2014 251° West 393 452 32,000  Level Indianapolis Center
Fri 09:56:45 PM 36.9186 -85.3297 250° West 394 453 32,000  Level Indianapolis Center
Fri 09:57:47 PM 36.8808 -85.4583 250° West 397 457 32,000  Level Indianapolis Center
Fri 09:58:48 PM 36.8358 -85.6128 250° West 398 458 32,000  Level Indianapolis Center
Fri 09:59:49 PM 36.7975 -85.7461 250° West 399 459 32,000  Level Indianapolis Center
Fri 10:00:51 PM 36.7589 -85.8764 250° West 400 460 32,000  Level Indianapolis Center
Fri 10:01:52 PM 36.7192 -86.0092 250° West 401 461 32,000  Level Indianapolis Center
Fri 10:02:53 PM 36.6806 -86.1411 250° West 403 464 32,000  Level Indianapolis Center
Fri 10:03:54 PM 36.6408 -86.2736 250° West 403 464 32,000  Level Indianapolis Center
Fri 10:04:55 PM 36.6008 -86.4050 249° West 403 464 32,000  Level Indianapolis Center
Fri 10:05:57 PM 36.5608 -86.5372 249° West 404 465 32,000  Level Indianapolis Center
Fri 10:06:58 PM 36.5217 -86.6686 250° West 404 465 32,000  Level Indianapolis Center
Fri 10:07:59 PM 36.4819 -86.7997 249° West 404 465 32,000  Level Indianapolis Center
Fri 10:09:00 PM 36.4422 -86.9306 249° West 405 466 32,000  Level Indianapolis Center
Fri 10:10:01 PM 36.3950 -87.0833 249° West 406 467 32,000  Level Indianapolis Center
Fri 10:11:03 PM 36.3542 -87.2153 249° West 406 467 32,000  Level Indianapolis Center
Fri 10:12:04 PM 36.3133 -87.3456 249° West 406 467 32,000  Level Indianapolis Center
Fri 10:13:05 PM 36.2719 -87.4764 249° West 406 467 32,000  Level Indianapolis Center
Fri 10:14:25 PM 36.2172 -87.6506 249° West 406 467 32,000  Level Memphis Center
Fri 10:15:26 PM 36.1761 -87.7814 249° West 406 467 32,000  Level Memphis Center
Fri 10:16:27 PM 36.1350 -87.9131 249° West 406 467 32,000  Level Memphis Center
Fri 10:17:28 PM 36.0928 -88.0436 248° West 406 467 32,000  Level Memphis Center
Fri 10:18:29 PM 36.0581 -88.1564 249° West 402 463 32,000  Level Memphis Center
Fri 10:19:30 PM 36.0072 -88.3108 248° West 402 463 32,000  Level Memphis Center
Fri 10:20:31 PM 35.9644 -88.4408 248° West 403 464 32,000  Level Memphis Center
Fri 10:21:32 PM 35.9225 -88.5706 248° West 407 468 32,000  Level Memphis Center
Fri 10:22:33 PM 35.8808 -88.6994 248° West 406 467 32,000  Level Memphis Center
Fri 10:23:34 PM 35.8386 -88.8283 248° West 405 466 32,000  Level Memphis Center
Fri 10:24:35 PM 35.7956 -88.9583 248° West 406 467 32,000  Level Memphis Center
Fri 10:25:36 PM 35.7528 -89.0894 248° West 407 468 32,000  Level Memphis Center
Fri 10:26:37 PM 35.7097 -89.2186 248° West 407 468 32,000  Level Memphis Center
Fri 10:27:38 PM 35.6714 -89.3353 248° West 407 468 32,000  Level Memphis Center
Fri 10:28:39 PM 35.6197 -89.4889 248° West 407 468 32,000  Level Memphis Center
Fri 10:29:40 PM 35.5772 -89.6156 248° West 407 468 32,000  Level Memphis Center
Fri 10:30:41 PM 35.5350 -89.7425 248° West 407 468 32,000  Level Memphis Center
Fri 10:31:42 PM 35.4917 -89.8692 247° West 407 468 32,000  Level Memphis Center
Fri 10:32:43 PM 35.4489 -89.9961 248° West 407 468 32,000  Level Memphis Center
Fri 10:33:43 PM 35.4064 -90.1211 247° West 406 467 32,000  Level Memphis Center
Fri 10:34:44 PM 35.3631 -90.2489 247° West 406 467 32,000  Level Memphis Center
Fri 10:35:45 PM 35.3192 -90.3747 247° West 406 467 32,000  Level Memphis Center
Fri 10:36:46 PM 35.2756 -90.5003 247° West 406 467 32,000  Level Memphis Center
Fri 10:37:47 PM 35.2322 -90.6253 247° West 406 467 32,000  Level Memphis Center
Fri 10:38:48 PM 35.1892 -90.7511 247° West 405 466 32,000  Level Memphis Center
Fri 10:39:48 PM 35.1367 -90.9017 247° West 405 466 32,000  Level Memphis Center
Fri 10:40:49 PM 35.0925 -91.0264 247° West 405 466 32,000  Level Memphis Center
Fri 10:41:50 PM 35.0481 -91.1525 247° West 405 466 32,000  Level Memphis Center
Fri 10:42:51 PM 35.0031 -91.2786 246° West 405 466 32,000  Level Memphis Center
Fri 10:43:52 PM 34.9589 -91.4056 247° West 405 466 32,000  Level Memphis Center
Fri 10:44:53 PM 34.9133 -91.5264 245° Southwest 407 468 32,000  Level Memphis Center
Fri 10:45:53 PM 34.8669 -91.6578 247° West 407 468 32,000  Level Memphis Center
Fri 10:46:54 PM 34.8233 -91.7797 246° West 407 468 32,000  Level Memphis Center
Fri 10:47:55 PM 34.7772 -91.9069 246° West 408 470 32,000  Level Memphis Center
Fri 10:48:56 PM 34.7311 -92.0336 246° West 408 470 32,000  Level Memphis Center
Fri 10:49:57 PM 34.6856 -92.1619 247° West 409 471 32,000  Level Memphis Center
Fri 10:50:58 PM 34.6425 -92.3192 252° West 408 470 32,000  Level Memphis Center
Fri 10:51:59 PM 34.6067 -92.4506 252° West 408 470 32,000  Level Memphis Center
Fri 10:52:59 PM 34.5719 -92.5831 252° West 408 470 32,000  Level Memphis Center
Fri 10:54:00 PM 34.5375 -92.7147 252° West 409 471 32,000  Level Memphis Center
Fri 10:55:01 PM 34.5019 -92.8447 252° West 408 470 32,000  Level Memphis Center
Fri 10:56:02 PM 34.4661 -92.9758 252° West 408 470 32,000  Level Memphis Center
Fri 10:57:03 PM 34.4325 -93.1072 253° West 408 470 32,000  Level Memphis Center
Fri 10:58:04 PM 34.3953 -93.2386 251° West 408 470 32,000  Level Memphis Center
Fri 10:59:04 PM 34.3597 -93.3700 252° West 410 472 32,000  Level Memphis Center
Fri 11:00:05 PM 34.3242 -93.5019 252° West 410 472 32,000  Level Memphis Center
Fri 11:01:06 PM 34.2861 -93.6386 251° West 410 472 32,000  Level Memphis Center
Fri 11:02:07 PM 34.2511 -93.7714 252° West 410 472 32,000  Level Memphis Center
Fri 11:03:08 PM 34.2122 -93.8997 250° West 411 473 32,000  Level Memphis Center
Fri 11:04:09 PM 34.1708 -94.0281 249° West 411 473 32,000  Level Memphis Center
Fri 11:04:39 PM 34.1472 -94.1056 250° West 413 475 32,000  Level Fort Worth Center
Fri 11:05:40 PM 34.1061 -94.2372 249° West 419 482 32,000  Level Fort Worth Center
Fri 11:06:41 PM 34.0667 -94.3658 250° West 418 481 32,000  Level Fort Worth Center
Fri 11:07:42 PM 34.0253 -94.4944 249° West 416 479 32,000  Level Fort Worth Center
Fri 11:08:43 PM 33.9842 -94.6231 249° West 415 478 32,000  Level Fort Worth Center
Fri 11:09:44 PM 33.9431 -94.7503 249° West 414 476 32,000  Level Fort Worth Center
Fri 11:10:46 PM 33.9019 -94.8789 249° West 414 476 32,000  Level Fort Worth Center
Fri 11:11:47 PM 33.8631 -94.9994 249° West 394 453 32,000 -689 Level Fort Worth Center
Fri 11:12:48 PM 33.8222 -95.1267 249° West 403 464 30,600 -1,869 Descending Fort Worth Center
Fri 11:13:49 PM 33.7703 -95.2825 248° West 421 484 28,200 -2,115 Descending Fort Worth Center
Fri 11:14:50 PM 33.7283 -95.4142 249° West 425 489 26,300 -1,918 Descending Fort Worth Center
Fri 11:15:51 PM 33.6831 -95.5478 248° West 430 495 24,300 -1,820 Descending Fort Worth Center
Fri 11:16:52 PM 33.6464 -95.6647 249° West 428 493 22,600 -2,016 Descending Fort Worth Center
Fri 11:17:53 PM 33.5936 -95.8161 247° West 408 470 20,200 -2,213 Descending Fort Worth Center
Fri 11:18:54 PM 33.5506 -95.9478 249° West 403 464 18,100 -2,115 Descending Fort Worth Center
Fri 11:19:55 PM 33.5106 -96.0686 248° West 392 451 15,900 -2,213 Descending Fort Worth Center
Fri 11:20:56 PM 33.4697 -96.1900 248° West 393 452 13,600 -2,098 Descending Fort Worth Center
Fri 11:21:58 PM 33.4308 -96.3083 249° West 384 442 11,600 -1,220 Descending Fort Worth Center
Fri 11:22:59 PM 33.3844 -96.4175 243° Southwest 373 429 11,100 -295 Descending Fort Worth Center
Fri 11:24:00 PM 33.3239 -96.5269 237° Southwest 367 422 11,000 -393 Descending Fort Worth Center
Fri 11:25:01 PM 33.2744 -96.6150 236° Southwest 325 374 10,300 -934 Descending Fort Worth Center
Fri 11:26:02 PM 33.2300 -96.6919 235° Southwest 286 329 9,100 -1,377 Descending Fort Worth Center
Fri 11:27:03 PM 33.1856 -96.7714 236° Southwest 271 312 7,500 -1,574 Descending Fort Worth Center
Fri 11:28:04 PM 33.1447 -96.8447 236° Southwest 266 306 5,900 -1,574 Descending Fort Worth Center
Fri 11:29:05 PM 33.1011 -96.9153 234° Southwest 267 307 4,300 -1,475 Descending Fort Worth Center
Fri 11:30:06 PM 33.0511 -96.9689 222° Southwest 242 278 2,900 -984 Descending Fort Worth Center
Fri 11:31:07 PM 33.0119 -97.0164 225° Southwest 197 227 2,300 -639 Descending Fort Worth Center
Fri 11:32:08 PM 32.9681 -97.0269 191° South 156 180 1,600 -639 Descending Fort Worth Center
Fri 11:33:09 PM 32.9328 -97.0264 179° South 130 150 1,000 -541 Descending Fort Worth Center
Fri 11:34:10 PM 32.9036 -97.0256 179° South 129 148 500 -492 Descending Fort Worth Center

Login

Don't have an account? Register now (free) for customized features, flight alerts, and more!